Flight Track Log - Related Links

Times and Time Zones

All times are in EDT time to prevent confusion due to time zone crossing. See the ASQ4663 flight status page for this flight to view local times or setup timezone preferences in your user account.

Time Position Orientation Groundspeed Altitude Reporting Facility
EDT Latitude Longitude Course Direction KTS MPH feet Rate Location/Type
Tue 08:42:57 PM 40.6167 -74.1833 217° Southwest 216 249 2,500  Level New York TRACON
Tue 08:43:57 PM 40.6167 -74.2667 270° West 224 258 5,400 2,800 Climbing New York TRACON
Tue 08:44:00 PM 40.6834 -74.5772 270° West  Level FlightAware Approximate
Tue 08:44:57 PM 40.6000 -74.3500 255° West 252 290 8,100  Level New York TRACON
Tue 08:45:00 PM 40.6833 -74.7140 270° West  Level FlightAware Approximate
Tue 08:45:57 PM 40.6167 -74.4500 282° West 279 321 10,200  Level New York TRACON
Tue 08:46:00 PM 40.6834 -74.8509 270° West  Level FlightAware Approximate
Tue 08:46:57 PM 40.6833 -74.5167 323° Northwest 308 354 11,600  Level New York TRACON
Tue 08:47:00 PM 40.6799 -74.9872 258° West  Level FlightAware Approximate
Tue 08:48:00 PM 40.6533 -75.1134 217° Southwest  Level FlightAware Approximate
Tue 08:48:42 PM 40.7222 -74.6675 289° West 317 365 14,600  Level New York Center
Tue 08:49:41 PM 40.7097 -74.7981 263° West 323 372 16,400 1,613 Climbing New York Center
Tue 08:50:41 PM 40.6992 -74.9206 264° West 340 391 17,800 1,388 Climbing New York Center
Tue 08:51:42 PM 40.6889 -75.0350 263° West 345 397 19,200 1,475 Climbing New York Center
Tue 08:52:43 PM 40.6511 -75.1531 247° West 350 403 20,800 1,537 Climbing New York Center
Tue 08:53:43 PM 40.5967 -75.2697 238° Southwest 356 410 22,300 1,500 Climbing New York Center
Tue 08:54:43 PM 40.5400 -75.3889 238° Southwest 370 426 23,800 1,424 Climbing New York Center
Tue 08:55:41 PM 40.4872 -75.5108 240° Southwest 382 440 25,100 1,271 Climbing New York Center
Tue 08:56:41 PM 40.4300 -75.6353 239° Southwest 387 445 26,300 1,230 Climbing New York Center
Tue 08:57:43 PM 40.3750 -75.7567 239° Southwest 387 445 27,600 1,279 Climbing New York Center
Tue 08:58:43 PM 40.3178 -75.8750 238° Southwest 387 445 28,900 1,289 Climbing New York Center
Tue 08:59:44 PM 40.2583 -75.9986 238° Southwest 387 445 30,200 1,271 Climbing New York Center
Tue 09:00:41 PM 40.2008 -76.1164 237° Southwest 392 451 31,400 1,373 Climbing New York Center
Tue 09:01:42 PM 40.1364 -76.2500 238° Southwest 392 451 32,900 1,286 Climbing New York Center
Tue 09:04:11 PM 39.9972 -76.5583 240° Southwest 396 456 35,900 890 Climbing Washington Center
Tue 09:05:11 PM 39.9378 -76.6875 239° Southwest 407 468 36,000 51 Climbing Washington Center
Tue 09:06:09 PM 39.8806 -76.8028 237° Southwest 420 483 36,000  Level Washington Center
Tue 09:07:10 PM 39.8167 -76.9342 238° Southwest 431 496 36,000  Level Washington Center
Tue 09:08:10 PM 39.7547 -77.0706 239° Southwest 431 496 36,000  Level Washington Center
Tue 09:09:11 PM 39.6925 -77.2042 239° Southwest 436 502 36,000  Level Washington Center
Tue 09:10:12 PM 39.6344 -77.3375 241° Southwest 436 502 36,000  Level Washington Center
Tue 09:11:10 PM 39.5989 -77.4767 252° West 423 487 36,000  Level Washington Center
Tue 09:12:10 PM 39.5614 -77.6131 250° West 412 474 36,000  Level Washington Center
Tue 09:13:11 PM 39.5256 -77.7519 252° West 406 467 36,000  Level Washington Center
Tue 09:14:12 PM 39.4875 -77.8881 250° West 406 467 36,000  Level Washington Center
Tue 09:15:09 PM 39.4494 -78.0239 250° West 406 467 36,000  Level Washington Center
Tue 09:16:11 PM 39.4133 -78.1622 251° West 406 467 36,000  Level Washington Center
Tue 09:17:11 PM 39.3769 -78.2953 251° West 406 467 36,000  Level Washington Center
Tue 09:18:12 PM 39.3386 -78.4306 250° West 401 461 36,000  Level Washington Center
Tue 09:19:12 PM 39.3019 -78.5689 251° West 401 461 36,000  Level Washington Center
Tue 09:20:10 PM 39.2631 -78.7039 250° West 401 461 36,000  Level Washington Center
Tue 09:21:10 PM 39.2261 -78.8389 251° West 406 467 36,000  Level Washington Center
Tue 09:22:10 PM 39.1889 -78.9767 251° West 406 467 36,000  Level Washington Center
Tue 09:23:11 PM 39.1475 -79.1111 248° West 406 467 36,000  Level Washington Center
Tue 09:24:11 PM 39.1097 -79.2592 252° West 400 460 36,000  Level Washington Center
Tue 09:25:12 PM 39.0700 -79.3961 250° West 400 460 36,000  Level Washington Center
Tue 09:26:12 PM 39.0328 -79.5172 248° West 405 466 36,000  Level Washington Center
Tue 09:27:10 PM 38.9947 -79.6594 251° West 412 474 36,000  Level Washington Center
Tue 09:28:10 PM 38.9547 -79.7933 249° West 412 474 36,000  Level Washington Center
Tue 09:29:11 PM 38.9167 -79.9244 250° West 412 474 36,000  Level Washington Center
Tue 09:31:35 PM 38.8189 -80.2497 249° West 403 464 36,000  Level Indianapolis Center
Tue 09:32:36 PM 38.7806 -80.3844 250° West 402 463 36,000  Level Indianapolis Center
Tue 09:33:37 PM 38.7447 -80.5208 251° West 403 464 36,000  Level Indianapolis Center
Tue 09:34:39 PM 38.7058 -80.6558 250° West 403 464 36,000  Level Indianapolis Center
Tue 09:35:40 PM 38.6672 -80.7894 250° West 400 460 36,000  Level Indianapolis Center
Tue 09:36:42 PM 38.6286 -80.9258 250° West 405 466 36,000  Level Indianapolis Center
Tue 09:37:43 PM 38.5897 -81.0622 250° West 406 467 36,000  Level Indianapolis Center
Tue 09:38:44 PM 38.5425 -81.2264 250° West 407 468 36,000  Level Indianapolis Center
Tue 09:39:46 PM 38.5031 -81.3653 250° West 409 471 36,000  Level Indianapolis Center
Tue 09:40:47 PM 38.4628 -81.5036 250° West 409 471 36,000  Level Indianapolis Center
Tue 09:41:49 PM 38.4233 -81.6417 250° West 410 472 36,000  Level Indianapolis Center
Tue 09:42:51 PM 38.3831 -81.7789 250° West 410 472 36,000  Level Indianapolis Center
Tue 09:43:52 PM 38.3433 -81.9139 249° West 407 468 36,000  Level Indianapolis Center
Tue 09:44:53 PM 38.3022 -82.0497 249° West 409 471 36,000  Level Indianapolis Center
Tue 09:45:55 PM 38.2622 -82.1864 250° West 411 473 36,000  Level Indianapolis Center
Tue 09:46:56 PM 38.2208 -82.3231 249° West 414 476 36,000  Level Indianapolis Center
Tue 09:47:58 PM 38.1806 -82.4600 250° West 412 474 36,000  Level Indianapolis Center
Tue 09:48:59 PM 38.1358 -82.6067 249° West 417 480 36,000  Level Indianapolis Center
Tue 09:50:01 PM 38.0928 -82.7436 248° West 417 480 36,000  Level Indianapolis Center
Tue 09:51:02 PM 38.0292 -82.8714 238° Southwest 428 493 36,000  Level Indianapolis Center
Tue 09:52:03 PM 37.9567 -83.0208 238° Southwest 428 493 36,000  Level Indianapolis Center
Tue 09:53:05 PM 37.8931 -83.1444 237° Southwest 421 484 36,000 -390 Level Indianapolis Center
Tue 09:54:06 PM 37.8319 -83.2692 238° Southwest 417 480 35,200 -878 Descending Indianapolis Center
Tue 09:55:08 PM 37.7706 -83.3892 237° Southwest 410 472 34,200 -585 Descending Indianapolis Center
Tue 09:56:09 PM 37.7078 -83.5156 238° Southwest 422 486 34,000 -98 Descending Indianapolis Center
Tue 09:57:10 PM 37.6422 -83.6419 237° Southwest 429 494 34,000  Level Indianapolis Center
Tue 09:58:12 PM 37.5778 -83.7697 238° Southwest 434 499 34,000  Level Indianapolis Center
Tue 09:59:13 PM 37.5014 -83.9181 237° Southwest 433 498 34,000 -344 Level Indianapolis Center
Tue 10:00:14 PM 37.4369 -84.0444 237° Southwest 430 495 33,300 -492 Descending Indianapolis Center
Tue 10:01:15 PM 37.3747 -84.1675 238° Southwest 419 482 33,000 -146 Descending Indianapolis Center
Tue 10:02:17 PM 37.3094 -84.2919 237° Southwest 425 489 33,000  Level Indianapolis Center
Tue 10:03:18 PM 37.2431 -84.4194 237° Southwest 434 499 33,000  Level Indianapolis Center
Tue 10:04:19 PM 37.1764 -84.5469 237° Southwest 436 502 33,000  Level Indianapolis Center
Tue 10:05:21 PM 37.1097 -84.6753 237° Southwest 439 505 33,000 -683 Level Indianapolis Center
Tue 10:06:22 PM 37.0433 -84.8022 237° Southwest 435 501 31,600 -2,115 Descending Indianapolis Center
Tue 10:07:23 PM 36.9672 -84.9431 236° Southwest 423 487 28,700 -2,656 Descending Indianapolis Center
Tue 10:08:24 PM 36.9050 -85.0683 238° Southwest 423 487 26,200 -2,439 Descending Indianapolis Center
Tue 10:09:26 PM 36.8442 -85.2022 240° Southwest 440 506 23,700 -2,049 Descending Indianapolis Center
Tue 10:10:27 PM 36.7858 -85.3275 240° Southwest 423 487 22,000 -1,000 Descending Indianapolis Center
Tue 10:11:08 PM 36.7475 -85.4036 238° Southwest 433 498 22,000 -891 Level Memphis Center
Tue 10:12:08 PM 36.6939 -85.5233 241° Southwest 411 473 20,500 -1,850 Descending Memphis Center
Tue 10:13:08 PM 36.6358 -85.6406 238° Southwest 399 459 18,300 -2,000 Descending Memphis Center
Tue 10:14:08 PM 36.5800 -85.7600 240° Southwest 399 459 16,500 -1,750 Descending Memphis Center
Tue 10:15:08 PM 36.5200 -85.8900 240° Southwest 399 459 14,800 -2,000 Descending Memphis Center
Tue 10:16:08 PM 36.4678 -86.0011 240° Southwest 393 452 12,500 -2,150 Descending Memphis Center
Tue 10:17:08 PM 36.4153 -86.1097 239° Southwest 386 444 10,500 -1,400 Descending Memphis Center
Tue 10:18:08 PM 36.3831 -86.2069 248° West 336 387 9,700 -900 Descending Memphis Center
Tue 10:19:08 PM 36.3567 -86.2958 250° West 294 338 8,700 -1,250 Descending Memphis Center
Tue 10:20:08 PM 36.3325 -86.3794 250° West 271 312 7,200 -1,500 Descending Memphis Center
Tue 10:21:08 PM 36.3078 -86.4606 249° West 259 298 5,700 -1,400 Descending Memphis Center
Tue 10:22:08 PM 36.2833 -86.5389 249° West 250 288 4,400 -1,200 Descending Memphis Center
Tue 10:23:08 PM 36.2472 -86.5919 230° Southwest 238 274 3,300 -1,100 Descending Memphis Center
Tue 10:24:08 PM 36.2133 -86.6400 229° Southwest 215 247 2,200 -850 Descending Memphis Center
Tue 10:25:08 PM 36.1847 -86.6592 208° Southwest 157 181 1,600 -600 Descending Memphis Center

Login

Don't have an account? Register now (free) for customized features, flight alerts, and more!